createdAt,value
2023-05-01T00:01:20.496Z,101670.72
2023-05-01T00:03:48.429Z,101671.59
2023-05-01T00:06:16.125Z,101669.84
2023-05-01T00:08:43.853Z,101661.94
2023-05-01T00:11:12.574Z,101660.25
2023-05-01T00:13:40.388Z,101653.22
2023-05-01T00:16:12.730Z,101651.47
2023-05-01T00:18:40.395Z,101644.47
2023-05-01T00:21:07.903Z,101639.22
2023-05-01T00:23:36.170Z,101632.22
2023-05-01T00:26:03.899Z,101630.47
2023-05-01T00:28:31.570Z,101633.94
2023-05-01T00:30:59.435Z,101630.44
2023-05-01T00:33:26.999Z,101621.63
2023-05-01T00:35:55.953Z,101630.34
2023-05-01T00:38:24.308Z,101625.09
2023-05-01T00:40:51.996Z,101625.97
2023-05-01T00:43:19.550Z,101621.56
2023-05-01T00:45:47.510Z,101614.56
2023-05-01T00:48:15.920Z,101611.03
2023-05-01T00:50:45.542Z,101608.41
2023-05-01T00:53:13.276Z,101607.53
2023-05-01T00:55:43.299Z,101605.78
2023-05-01T00:58:14.455Z,101598.75
2023-05-01T01:00:42.211Z,101596.19
2023-05-01T01:03:10.456Z,101599.72
2023-05-01T01:05:51.444Z,101589.16
2023-05-01T01:09:08.225Z,101590.97
2023-05-01T01:12:25.198Z,101576.97
2023-05-01T01:15:10.251Z,101573.47
2023-05-01T01:18:07.536Z,101567.38
2023-05-01T01:20:47.127Z,101564.81
2023-05-01T01:23:53.179Z,101567.47
2023-05-01T01:26:52.352Z,101568.41
2023-05-01T01:30:26.520Z,101562.22
2023-05-01T01:33:13.170Z,101559.69
2023-05-01T01:35:53.692Z,101555.28
2023-05-01T01:38:40.464Z,101550.97
2023-05-01T01:41:18.132Z,101548.34
2023-05-01T01:44:02.025Z,101550.09
2023-05-01T01:46:37.030Z,101539.56
2023-05-01T01:49:13.422Z,101528.19
2023-05-01T01:51:42.932Z,101529.91
2023-05-01T01:54:15.314Z,101525.56
2023-05-01T01:56:46.157Z,101524.66
2023-05-01T01:59:16.659Z,101528.19
2023-05-01T02:01:47.337Z,101518.50
2023-05-01T02:04:17.187Z,101519.38
2023-05-01T02:06:47.042Z,101522.03
2023-05-01T02:09:19.511Z,101527.28
2023-05-01T02:11:49.642Z,101520.31
2023-05-01T02:14:19.169Z,101510.66
2023-05-01T02:16:48.903Z,101508.91
2023-05-01T02:19:18.978Z,101508.91
2023-05-01T02:21:49.940Z,101507.16
2023-05-01T02:24:22.569Z,101500.13
2023-05-01T02:26:59.673Z,101497.56
2023-05-01T02:29:28.466Z,101495.03
2023-05-01T02:31:56.352Z,101501.19
2023-05-01T02:34:24.457Z,101491.63
2023-05-01T02:36:52.047Z,101497.81
2023-05-01T02:39:20.199Z,101488.22
2023-05-01T02:41:49.778Z,101485.63
2023-05-01T02:44:20.622Z,101487.44
2023-05-01T02:46:53.348Z,101483.97
2023-05-01T02:49:21.867Z,101477.97
2023-05-01T02:51:50.879Z,101480.59
2023-05-01T02:54:20.930Z,101472.69
2023-05-01T02:56:48.617Z,101471.81
2023-05-01T02:59:16.500Z,101463.00
2023-05-01T03:01:44.299Z,101462.16
2023-05-01T03:04:12.721Z,101464.81
2023-05-01T03:06:40.805Z,101457.84
2023-05-01T03:09:08.496Z,101453.50
2023-05-01T03:11:37.696Z,101459.66
2023-05-01T03:14:06.038Z,101457.00
2023-05-01T03:16:33.848Z,101449.97
2023-05-01T03:19:02.195Z,101451.75
2023-05-01T03:21:29.738Z,101446.50
2023-05-01T03:23:57.658Z,101445.63
2023-05-01T03:26:25.730Z,101440.41
2023-05-01T03:28:53.442Z,101436.94
2023-05-01T03:31:22.631Z,101436.16
2023-05-01T03:33:50.539Z,101434.50
2023-05-01T03:36:18.274Z,101427.53
2023-05-01T03:38:48.496Z,101427.69
2023-05-01T03:41:34.527Z,101427.78
2023-05-01T03:44:15.487Z,101420.84
2023-05-01T03:46:45.159Z,101416.53
2023-05-01T03:49:19.257Z,101415.75
2023-05-01T03:51:49.275Z,101414.97
2023-05-01T03:54:17.080Z,101413.19
2023-05-01T03:56:58.686Z,101411.41
2023-05-01T03:59:27.086Z,101413.19
2023-05-01T04:01:54.780Z,101414.03
2023-05-01T04:04:22.784Z,101414.00
2023-05-01T04:06:58.835Z,101410.50
2023-05-01T04:09:26.577Z,101417.50
2023-05-01T04:11:54.394Z,101411.41
2023-05-01T04:14:22.121Z,101402.66
2023-05-01T04:16:51.194Z,101406.13
2023-05-01T04:19:19.494Z,101407.06
2023-05-01T04:21:48.717Z,101406.19
2023-05-01T04:24:16.724Z,101400.94
2023-05-01T04:26:44.515Z,101401.78
2023-05-01T04:29:12.272Z,101397.41
2023-05-01T04:31:41.732Z,101401.81
2023-05-01T04:34:09.610Z,101391.31
2023-05-01T04:36:38.587Z,101393.94
2023-05-01T04:39:06.617Z,101392.16
2023-05-01T04:41:34.569Z,101391.28
2023-05-01T04:44:03.394Z,101394.78
2023-05-01T04:46:31.086Z,101392.09
2023-05-01T04:48:58.752Z,101388.56
2023-05-01T04:51:28.038Z,101386.78
2023-05-01T04:53:55.880Z,101392.84
2023-05-01T04:56:27.412Z,101388.38
2023-05-01T04:59:00.749Z,101398.03
2023-05-01T05:01:30.624Z,101393.59
2023-05-01T05:03:59.895Z,101387.41
2023-05-01T05:06:28.498Z,101388.28
2023-05-01T05:08:57.767Z,101388.28
2023-05-01T05:11:26.473Z,101391.75
2023-05-01T05:14:04.029Z,101386.47
2023-05-01T05:16:34.910Z,101391.69
2023-05-01T05:19:03.169Z,101393.47
2023-05-01T05:21:36.684Z,101389.94
2023-05-01T05:24:05.200Z,101388.13
2023-05-01T05:26:33.673Z,101388.97
2023-05-01T05:29:04.352Z,101392.50
2023-05-01T05:31:32.114Z,101401.25
2023-05-01T05:34:00.108Z,101395.06
2023-05-01T05:36:28.722Z,101398.44
2023-05-01T05:38:56.665Z,101409.78
2023-05-01T05:41:24.651Z,101414.09
2023-05-01T05:43:57.383Z,101404.28
2023-05-01T05:46:25.512Z,101403.34
2023-05-01T05:48:57.102Z,101404.13
2023-05-01T05:51:28.556Z,101405.81
2023-05-01T05:53:57.551Z,101410.97
2023-05-01T05:56:25.370Z,101406.47
2023-05-01T05:58:53.185Z,101405.47
2023-05-01T06:01:21.640Z,101414.16
2023-05-01T06:03:49.378Z,101397.38
2023-05-01T06:06:17.488Z,101386.75
2023-05-01T06:08:46.341Z,101393.69
2023-05-01T06:11:14.359Z,101391.00
2023-05-01T06:13:42.271Z,101390.84
2023-05-01T06:16:10.148Z,101393.41
2023-05-01T06:18:38.007Z,101401.19
2023-05-01T06:21:06.626Z,101394.06
2023-05-01T06:23:34.832Z,101384.38
2023-05-01T06:26:24.665Z,101387.75
2023-05-01T06:28:52.473Z,101390.16
2023-05-01T06:31:20.802Z,101387.41
2023-05-01T06:33:53.174Z,101388.94
2023-05-01T06:36:28.026Z,101384.44
2023-05-01T06:38:55.751Z,101393.97
2023-05-01T06:41:25.531Z,101390.19
2023-05-01T06:43:53.276Z,101391.63
2023-05-01T06:46:20.935Z,101386.03
2023-05-01T06:48:48.927Z,101390.22
2023-05-01T06:51:16.655Z,101390.97
2023-05-01T06:53:44.346Z,101384.69
2023-05-01T06:56:12.210Z,101388.84
2023-05-01T06:58:39.879Z,101388.56
2023-05-01T07:01:07.636Z,101379.56
2023-05-01T07:03:35.414Z,101378.38
2023-05-01T07:06:03.216Z,101383.47
2023-05-01T07:08:31.614Z,101376.25
2023-05-01T07:10:59.284Z,101380.47
2023-05-01T07:13:27.163Z,101379.38
2023-05-01T07:15:55.219Z,101382.56
2023-05-01T07:18:23.059Z,101382.28
2023-05-01T07:20:50.972Z,101373.34
2023-05-01T07:23:18.727Z,101382.84
2023-05-01T07:25:46.419Z,101380.84
2023-05-01T07:28:14.064Z,101379.72
2023-05-01T07:30:42.006Z,101382.31
2023-05-01T07:33:09.639Z,101384.03
2023-05-01T07:35:37.454Z,101386.69
2023-05-01T07:38:05.195Z,101381.31
2023-05-01T07:40:34.497Z,101383.84
2023-05-01T07:43:02.271Z,101371.56
2023-05-01T07:45:31.379Z,101374.16
2023-05-01T07:47:58.984Z,101373.88
2023-05-01T07:50:26.931Z,101375.44
2023-05-01T07:52:54.862Z,101377.88
2023-05-01T07:55:23.649Z,101374.00
2023-05-01T07:57:51.338Z,101371.41
2023-05-01T08:00:20.112Z,101376.69
2023-05-01T08:02:48.384Z,101370.22
2023-05-01T08:05:16.227Z,101375.00
2023-05-01T08:07:44.018Z,101364.78
2023-05-01T08:10:11.652Z,101372.94
2023-05-01T08:12:39.536Z,101371.66
2023-05-01T08:15:52.560Z,101379.22
2023-05-01T08:18:21.199Z,101371.84
2023-05-01T08:20:50.497Z,101369.91
2023-05-01T08:23:18.699Z,101371.34
2023-05-01T08:25:51.701Z,101360.56
2023-05-01T08:28:22.910Z,101357.69
2023-05-01T08:30:51.010Z,101368.16
2023-05-01T08:33:19.405Z,101359.22
2023-05-01T08:35:46.986Z,101365.75
2023-05-01T08:38:14.776Z,101355.19
2023-05-01T08:40:51.067Z,101359.72
2023-05-01T08:43:19.206Z,101362.84
2023-05-01T08:45:49.417Z,101354.63
2023-05-01T08:48:20.661Z,101365.59
2023-05-01T08:50:49.805Z,101363.00
2023-05-01T08:53:20.201Z,101364.25
2023-05-01T08:55:50.651Z,101366.47
2023-05-01T08:58:21.918Z,101362.63
2023-05-01T09:00:50.311Z,101364.06
2023-05-01T09:03:20.380Z,101365.31
2023-05-01T09:05:48.904Z,101365.88
2023-05-01T09:08:16.716Z,101354.28
2023-05-01T09:10:48.828Z,101362.31
2023-05-01T09:13:16.546Z,101366.47
2023-05-01T09:15:44.600Z,101366.22
2023-05-01T09:18:13.056Z,101360.44
2023-05-01T09:20:41.779Z,101367.41
2023-05-01T09:23:10.113Z,101358.25
2023-05-01T09:25:38.646Z,101355.03
2023-05-01T09:28:07.574Z,101355.91
2023-05-01T09:30:39.394Z,101354.00
2023-05-01T09:33:15.535Z,101358.09
2023-05-01T09:35:50.000Z,101354.94
2023-05-01T09:38:23.900Z,101356.50
2023-05-01T09:40:56.513Z,101350.16
2023-05-01T09:43:29.547Z,101356.16
2023-05-01T09:46:09.957Z,101354.22
2023-05-01T09:48:38.894Z,101344.25
2023-05-01T09:51:31.036Z,101353.69
2023-05-01T09:54:01.846Z,101352.00
2023-05-01T09:56:32.286Z,101351.22
2023-05-01T09:59:18.124Z,101352.78
2023-05-01T10:01:49.354Z,101354.75
2023-05-01T10:04:17.369Z,101352.00
2023-05-01T10:06:45.278Z,101353.06
2023-05-01T10:09:29.257Z,101359.81
2023-05-01T10:11:57.866Z,101354.06
2023-05-01T10:14:27.062Z,101352.44
2023-05-01T10:16:57.970Z,101353.50
2023-05-01T10:19:26.082Z,101351.28
2023-05-01T10:21:53.807Z,101346.47
2023-05-01T10:24:22.270Z,101342.19
2023-05-01T10:26:52.456Z,101348.63
2023-05-01T10:29:23.909Z,101345.22
2023-05-01T10:31:51.637Z,101346.38
2023-05-01T10:34:24.197Z,101346.97
2023-05-01T10:37:07.185Z,101350.50
2023-05-01T10:39:36.853Z,101347.81
2023-05-01T10:42:11.213Z,101346.47
2023-05-01T10:44:39.083Z,101342.88
2023-05-01T10:47:31.644Z,101350.69
2023-05-01T10:50:15.846Z,101345.19
2023-05-01T10:53:15.589Z,101347.66
2023-05-01T10:55:49.427Z,101337.81
2023-05-01T10:58:37.154Z,101339.56
2023-05-01T11:01:31.372Z,101336.91
2023-05-01T11:04:24.798Z,101333.28
2023-05-01T11:07:08.528Z,101334.19
2023-05-01T11:09:44.356Z,101327.44
2023-05-01T11:12:16.742Z,101332.25
2023-05-01T11:15:09.620Z,101330.59
2023-05-01T11:17:46.058Z,101323.19
2023-05-01T11:20:25.998Z,101327.72
2023-05-01T11:22:56.472Z,101319.78
2023-05-01T11:25:27.757Z,101321.16
2023-05-01T11:27:59.868Z,101322.88
2023-05-01T11:30:37.797Z,101324.81
2023-05-01T11:33:09.128Z,101316.94
2023-05-01T11:35:39.079Z,101317.31
2023-05-01T11:38:18.633Z,101314.84
2023-05-01T11:40:55.479Z,101313.94
2023-05-01T11:43:23.531Z,101326.66
2023-05-01T11:45:55.011Z,101325.16
2023-05-01T11:48:22.836Z,101320.44
2023-05-01T11:50:50.874Z,101325.22
2023-05-01T11:53:18.639Z,101323.81
2023-05-01T11:55:46.674Z,101318.84
2023-05-01T11:58:15.233Z,101325.78
2023-05-01T12:00:43.969Z,101323.13
2023-05-01T12:03:15.500Z,101320.78
2023-05-01T12:05:45.492Z,101319.00
2023-05-01T12:08:18.793Z,101320.34
2023-05-01T12:10:53.621Z,101319.16
2023-05-01T12:13:22.106Z,101316.38
2023-05-01T12:15:55.248Z,101320.97
2023-05-01T12:18:23.425Z,101320.25
2023-05-01T12:20:54.300Z,101319.31
2023-05-01T12:23:37.361Z,101315.22
2023-05-01T12:26:28.226Z,101318.75
2023-05-01T12:28:58.936Z,101314.63
2023-05-01T12:31:28.586Z,101320.53
2023-05-01T12:34:01.994Z,101305.56
2023-05-01T12:36:32.467Z,101315.41
2023-05-01T12:39:12.883Z,101319.53
2023-05-01T12:41:49.049Z,101318.75
2023-05-01T12:44:23.867Z,101315.19
2023-05-01T12:47:04.458Z,101319.78
2023-05-01T12:49:33.287Z,101321.31
2023-05-01T12:52:01.793Z,101326.56
2023-05-01T12:54:34.593Z,101327.44
2023-05-01T12:57:08.071Z,101324.19
2023-05-01T12:59:41.025Z,101329.72
2023-05-01T13:02:16.065Z,101323.19
2023-05-01T13:04:45.192Z,101319.97
2023-05-01T13:07:15.799Z,101331.59
2023-05-01T13:09:57.794Z,101339.44
2023-05-01T13:12:27.634Z,101332.00
2023-05-01T13:14:56.331Z,101342.44
2023-05-01T13:17:31.249Z,101343.47
2023-05-01T13:20:04.912Z,101332.00
2023-05-01T13:22:39.005Z,101344.22
2023-05-01T13:25:20.647Z,101344.53
2023-05-01T13:27:53.707Z,101334.50
2023-05-01T13:30:32.993Z,101343.19
2023-05-01T13:33:02.125Z,101347.50
2023-05-01T13:35:32.178Z,101340.31
2023-05-01T13:38:04.121Z,101348.91
2023-05-01T13:40:34.400Z,101357.50
2023-05-01T13:43:03.099Z,101366.09
2023-05-01T13:45:30.751Z,101367.63
2023-05-01T13:47:58.717Z,101363.88
2023-05-01T13:50:27.576Z,101360.06
2023-05-01T13:52:55.206Z,101365.19
2023-05-01T13:55:24.183Z,101365.41
2023-05-01T13:57:51.885Z,101366.56
2023-05-01T14:00:20.679Z,101364.19
2023-05-01T14:02:49.716Z,101366.19
2023-05-01T14:05:28.928Z,101368.19
2023-05-01T14:07:58.520Z,101380.88
2023-05-01T14:10:28.886Z,101370.94
2023-05-01T14:13:01.036Z,101375.72
2023-05-01T14:15:29.454Z,101375.53
2023-05-01T14:17:58.234Z,101378.19
2023-05-01T14:20:26.001Z,101375.28
2023-05-01T14:22:53.780Z,101368.66
2023-05-01T14:25:31.355Z,101373.63
2023-05-01T14:28:01.946Z,101369.03
2023-05-01T14:30:37.182Z,101364.44
2023-05-01T14:33:11.492Z,101362.28
2023-05-01T14:35:52.060Z,101362.09
2023-05-01T14:38:22.618Z,101358.47
2023-05-01T14:40:50.393Z,101352.41
2023-05-01T14:43:21.847Z,101365.34
2023-05-01T14:45:50.189Z,101354.25
2023-05-01T14:48:24.063Z,101367.13
2023-05-01T14:50:52.906Z,101364.81
2023-05-01T14:53:21.461Z,101361.47
2023-05-01T14:55:51.768Z,101372.28
2023-05-01T14:58:19.440Z,101378.50
2023-05-01T15:00:47.233Z,101379.16
2023-05-01T15:03:15.011Z,101387.78
2023-05-01T15:05:44.408Z,101385.00
2023-05-01T15:08:12.217Z,101393.72
2023-05-01T15:10:39.876Z,101399.75
2023-05-01T15:13:07.722Z,101397.66
2023-05-01T15:15:35.297Z,101401.56
2023-05-01T15:18:04.067Z,101408.84
2023-05-01T15:20:31.942Z,101408.31
2023-05-01T15:22:59.504Z,101416.72
2023-05-01T15:25:27.161Z,101407.66
2023-05-01T15:27:55.840Z,101409.88
2023-05-01T15:30:23.474Z,101412.81
2023-05-01T15:32:51.678Z,101417.59
2023-05-01T15:35:21.416Z,101419.53
2023-05-01T15:37:49.337Z,101423.25
2023-05-01T15:40:16.976Z,101426.00
2023-05-01T15:42:47.936Z,101428.72
2023-05-01T15:45:15.565Z,101429.00
2023-05-01T15:47:43.219Z,101439.94
2023-05-01T15:50:14.668Z,101438.50
2023-05-01T15:52:42.246Z,101437.06
2023-05-01T15:55:10.052Z,101446.09
2023-05-01T15:57:37.766Z,101439.34
2023-05-01T16:00:06.587Z,101445.88
2023-05-01T16:02:34.355Z,101447.94
2023-05-01T16:05:02.098Z,101444.72
2023-05-01T16:07:29.890Z,101445.72
2023-05-01T16:09:58.424Z,101454.66
2023-05-01T16:12:30.132Z,101461.78
2023-05-01T16:14:57.960Z,101451.63
2023-05-01T16:17:25.608Z,101451.84
2023-05-01T16:19:55.124Z,101449.88
2023-05-01T16:22:22.726Z,101446.75
2023-05-01T16:24:50.490Z,101449.75
2023-05-01T16:27:18.515Z,101458.94
2023-05-01T16:29:46.223Z,101456.13
2023-05-01T16:32:17.005Z,101454.34
2023-05-01T16:34:44.856Z,101448.53
2023-05-01T16:37:15.118Z,101456.38
2023-05-01T16:39:43.205Z,101450.19
2023-05-01T16:42:14.440Z,101456.13
2023-05-01T16:44:42.206Z,101456.00
2023-05-01T16:47:12.820Z,101469.53
2023-05-01T16:49:46.455Z,101472.75
2023-05-01T16:52:16.310Z,101481.47
2023-05-01T16:54:43.905Z,101476.28
2023-05-01T16:57:11.556Z,101481.91
2023-05-01T16:59:39.239Z,101465.22
2023-05-01T17:02:07.149Z,101482.53
2023-05-01T17:04:34.942Z,101482.28
2023-05-01T17:07:02.728Z,101483.19
2023-05-01T17:09:31.116Z,101485.75
2023-05-01T17:11:59.202Z,101487.06
2023-05-01T17:14:29.067Z,101489.81
2023-05-01T17:17:00.042Z,101490.53
2023-05-01T17:19:28.890Z,101489.66
2023-05-01T17:21:58.167Z,101479.88
2023-05-01T17:24:27.061Z,101481.63
2023-05-01T17:26:55.512Z,101480.53
2023-05-01T17:29:24.149Z,101490.03
2023-05-01T17:31:51.834Z,101482.94
2023-05-01T17:34:19.649Z,101485.75
2023-05-01T17:36:47.597Z,101494.84
2023-05-01T17:39:15.182Z,101497.72
2023-05-01T17:41:43.012Z,101493.41
2023-05-01T17:44:10.653Z,101495.22
2023-05-01T17:46:38.974Z,101492.63
2023-05-01T17:49:07.389Z,101490.25
2023-05-01T17:51:35.134Z,101501.97
2023-05-01T17:54:02.723Z,101507.56
2023-05-01T17:56:30.243Z,101507.13
2023-05-01T17:58:57.813Z,101504.03
2023-05-01T18:01:25.558Z,101516.81
2023-05-01T18:03:54.115Z,101518.94
2023-05-01T18:06:22.017Z,101514.13
2023-05-01T18:08:50.235Z,101517.19
2023-05-01T18:11:17.883Z,101517.63
2023-05-01T18:13:48.002Z,101529.56
2023-05-01T18:16:16.060Z,101532.81
2023-05-01T18:18:43.989Z,101535.06
2023-05-01T18:21:11.592Z,101534.56
2023-05-01T18:23:39.804Z,101534.97
2023-05-01T18:26:08.128Z,101537.16
2023-05-01T18:28:35.738Z,101538.47
2023-05-01T18:31:03.904Z,101542.41
2023-05-01T18:33:31.704Z,101546.22
2023-05-01T18:35:59.938Z,101560.72
2023-05-01T18:38:28.500Z,101561.91
2023-05-01T18:40:56.302Z,101557.00
2023-05-01T18:43:23.927Z,101568.81
2023-05-01T18:45:51.538Z,101560.28
2023-05-01T18:48:19.509Z,101574.75
2023-05-01T18:50:54.283Z,101577.66
2023-05-01T18:53:28.685Z,101574.66
2023-05-01T18:56:03.325Z,101583.78
2023-05-01T18:58:33.152Z,101584.00
2023-05-01T19:01:00.870Z,101587.72
2023-05-01T19:03:28.470Z,101598.53
2023-05-01T19:05:56.112Z,101603.19
2023-05-01T19:08:23.985Z,101599.84
2023-05-01T19:10:52.791Z,101605.34
2023-05-01T19:13:20.681Z,101603.78
2023-05-01T19:15:48.328Z,101604.84
2023-05-01T19:18:16.856Z,101608.50
2023-05-01T19:20:46.936Z,101611.34
2023-05-01T19:23:14.561Z,101621.28
2023-05-01T19:25:42.130Z,101617.97
2023-05-01T19:28:09.816Z,101619.88
2023-05-01T19:30:37.501Z,101628.88
2023-05-01T19:33:05.155Z,101629.03
2023-05-01T19:35:32.944Z,101631.84
2023-05-01T19:38:00.602Z,101634.63
2023-05-01T19:40:28.775Z,101647.09
2023-05-01T19:42:56.554Z,101637.53
2023-05-01T19:45:30.868Z,101650.03
2023-05-01T19:47:58.604Z,101646.72
2023-05-01T19:50:26.329Z,101649.47
2023-05-01T19:52:54.071Z,101650.56
2023-05-01T19:55:21.598Z,101648.09
2023-05-01T19:57:49.126Z,101655.28
2023-05-01T20:00:17.026Z,101656.34
2023-05-01T20:02:45.266Z,101652.06
2023-05-01T20:05:15.650Z,101652.25
2023-05-01T20:07:43.376Z,101656.72
2023-05-01T20:10:11.254Z,101661.31
2023-05-01T20:12:39.058Z,101666.75
2023-05-01T20:15:08.680Z,101678.31
2023-05-01T20:17:36.357Z,101680.22
2023-05-01T20:20:04.330Z,101677.69
2023-05-01T20:22:32.031Z,101686.59
2023-05-01T20:24:59.592Z,101686.69
2023-05-01T20:27:27.463Z,101690.28
2023-05-01T20:29:55.113Z,101693.00
2023-05-01T20:32:22.766Z,101694.91
2023-05-01T20:34:50.400Z,101702.97
2023-05-01T20:37:19.250Z,101699.56
2023-05-01T20:39:47.060Z,101712.88
2023-05-01T20:42:14.764Z,101713.00
2023-05-01T20:44:42.278Z,101712.19
2023-05-01T20:47:09.929Z,101705.34
2023-05-01T20:49:37.440Z,101714.25
2023-05-01T20:52:05.378Z,101709.09
2023-05-01T20:54:33.068Z,101721.50
2023-05-01T20:57:02.612Z,101723.38
2023-05-01T20:59:30.724Z,101722.59
2023-05-01T21:01:58.393Z,101731.47
2023-05-01T21:04:26.079Z,101723.66
2023-05-01T21:06:53.808Z,101723.69
2023-05-01T21:09:21.466Z,101727.28
2023-05-01T21:11:49.184Z,101718.59
2023-05-01T21:14:16.667Z,101723.94
2023-05-01T21:16:44.191Z,101721.41
2023-05-01T21:19:14.635Z,101722.38
2023-05-01T21:21:42.299Z,101720.78
2023-05-01T21:24:20.820Z,101722.59
2023-05-01T21:26:48.990Z,101720.03
2023-05-01T21:29:16.599Z,101724.47
2023-05-01T21:31:44.229Z,101734.19
2023-05-01T21:34:12.519Z,101734.22
2023-05-01T21:36:46.951Z,101733.38
2023-05-01T21:39:15.576Z,101739.66
2023-05-01T21:41:43.148Z,101739.72
2023-05-01T21:44:10.922Z,101744.22
2023-05-01T21:46:38.722Z,101749.53
2023-05-01T21:49:06.552Z,101756.66
2023-05-01T21:51:34.137Z,101755.84
2023-05-01T21:54:04.208Z,101760.34
2023-05-01T21:56:32.720Z,101760.44
2023-05-01T21:59:04.811Z,101771.94
2023-05-01T22:01:32.618Z,101772.88
2023-05-01T22:04:00.266Z,101779.94
2023-05-01T22:06:28.253Z,101774.69
2023-05-01T22:08:56.267Z,101772.97
2023-05-01T22:11:24.401Z,101778.25
2023-05-01T22:13:51.947Z,101771.22
2023-05-01T22:16:19.846Z,101771.22
2023-05-01T22:18:49.780Z,101773.06
2023-05-01T22:21:17.496Z,101773.09
2023-05-01T22:23:45.496Z,101770.50
2023-05-01T22:26:13.261Z,101779.28
2023-05-01T22:28:40.931Z,101787.22
2023-05-01T22:31:08.418Z,101777.63
2023-05-01T22:33:36.779Z,101775.88
2023-05-01T22:36:07.330Z,101776.75
2023-05-01T22:38:36.188Z,101777.69
2023-05-01T22:41:03.951Z,101787.34
2023-05-01T22:43:31.459Z,101783.81
2023-05-01T22:45:59.649Z,101794.34
2023-05-01T22:48:27.347Z,101795.19
2023-05-01T22:50:54.846Z,101803.06
2023-05-01T22:53:22.389Z,101804.75
2023-05-01T22:55:50.026Z,101805.59
2023-05-01T22:58:17.563Z,101813.44
2023-05-01T23:00:45.098Z,101818.69
2023-05-01T23:03:12.791Z,101820.41
2023-05-01T23:05:40.445Z,101822.16
2023-05-01T23:08:07.965Z,101829.16
2023-05-01T23:10:42.245Z,101832.63
2023-05-01T23:13:19.845Z,101829.94
2023-05-01T23:15:49.587Z,101835.22
2023-05-01T23:18:27.623Z,101842.19
2023-05-01T23:20:55.573Z,101842.19
2023-05-01T23:23:29.696Z,101845.72
2023-05-01T23:25:57.703Z,101846.59
2023-05-01T23:28:27.015Z,101844.81
2023-05-01T23:30:59.043Z,101846.56
2023-05-01T23:33:39.035Z,101848.28
2023-05-01T23:36:12.449Z,101853.56
2023-05-01T23:38:40.524Z,101857.06
2023-05-01T23:41:08.456Z,101858.78
2023-05-01T23:43:37.949Z,101864.91
2023-05-01T23:46:07.521Z,101858.75
2023-05-01T23:48:35.412Z,101877.19
2023-05-01T23:51:03.909Z,101860.47
2023-05-01T23:53:31.590Z,101865.75
2023-05-01T23:55:59.262Z,101861.38
2023-05-01T23:58:26.795Z,101868.38
